Carbondale, IL (62901)

9:40 AM CST on December 03, 2016 (GMT -0600)
Carbondale City Hall | | Change Station

Elev 430 ft 37.73 °N, 89.22 °W | Updated 10 minutes ago

Clear
Clear
41.5 °F
Feels Like 42 °F
N
0.0
Wind Variable Wind from SE
Gusts 4.0 mph

Today
High -- | Low -- °F
--% Chance of Precip.
Yesterday
High -- | Low -- °F
Precip. -- in
Pressure 30.39 in
Visibility 7.0 miles
Clouds Clear
Windchill 42 °F
Dew Point 36 °F
Humidity 81%
Rainfall 0.00 in
Snow Depth Not available.
6:55 AM 4:38 PM
Waxing Crescent, 15% visible
METAR KMDH 031452Z AUTO 00000KT 7SM CLR 02/02 A3038 RMK AO2 SLP290 I3000 T00170017 55000
Pressure 30.39 in
Visibility 7.0 miles
Clouds Clear
Windchill 42 °F
Dew Point 36 °F
Humidity 81%
Rainfall 0.00 in
Snow Depth Not available.
6:55 AM 4:38 PM
Waxing Crescent, 15% visible
METAR KMDH 031452Z AUTO 00000KT 7SM CLR 02/02 A3038 RMK AO2 SLP290 I3000 T00170017 55000

10-Day Weather Forecast

Almanac

Astronomy

Dec. 03, 2016 Rise Set
Actual Time
Civil Twilight
Nautical Twilight
Astronomical Twilight
Moon
Length of Visible Light
Length of Day
Tomorrow will be .
, % of the Moon is Illuminated

Today's Extremes

State Highs State Lows

Community

WunderPhotos

Upload Photos

1,955,425 photos uploaded!

WunderBlog® & News

Nearby

Air Quality

  Air Quality AQ Index Pollutant
Not available.

Snow Depth

Station Depth Elevation

Earthquake Activity

City Distance Mag. Time & Date
Minimum magnitude displayed is 2.5.

Coastal Water Temperatures

Place Temperature

Stations

Nearby Weather Stations

Station Location Temp. Windchill Dew Point Humidity Wind Precip. Elev Updated Type
                   

Watches & Warnings

There are currently no watches in effect.